עמוד ראשי
METAR-TAF:

METAR-TAF

שדות תעופה :

Fort Richardson, אלסקה, ארצות הברית

קו רוחב: 61-15-45N, קו אורך: 149-39-17W, גובה: 115מטר

תצפית מזג אוויר נוכחית

הדו"ח נערך לפני 28דקות, בשעה 02:55 UTC
רוח 8קשר מכיוון דרום-מערב
טמפרטורת 18 צלסיוס
לחות 59%
לחץ 1016 hPa
ראות: 16.1קילומטר
שמיים נקיים

METAR: PAFR 180255Z AUTO 22008KT 10SM CLR 18/10 A3000 RMK AO2 SLP164 T01800101 57008 $

זמן: 19:23 (03:23 UTC)


TAF: חסר

תצפיות ותחזיות מזג אוויר לגבי יותר מ- 4,000 שדות תעופה ברחבי העולם. דוחות METAR ו- TAF.

התחנות הזמינות מסומנות בנקודות צהובות ואדומות על גבי המפה.

העבר את העכבר לנקודה הצבעונית על מנת לראות את שם התחנה.

לאחר מכן, לחץ כדי לראות את תוכן ואת תחזיות מזג האוויר.

כדי לשנות את המפה: לחץ על הכפתורים הירוקים עם הפלוס השחור כדי להתקרב; על הכפתור הירוק עם המקף כדי להתרחק; או בחיצים הירוקים למפות סמוכות.


METAR-TAF: